.
WxDataArchive / Data Records for 2007-07-05
2007-07-04 July 2007 2007-07-06

Data Records for Thursday, 05 July 2007

Time	Temp	Chill	HIndex	Humid	Dewpt	 Wind 	HiWind	WindDir	Rain 	Barom 
-----	----	-----	------	-----	-----	------	------	-------	-----	----- 
00:00	71.1	71.1	71.1	87	67.0	0	0	---	0.00	29.843 
00:05	71.1	71.1	71.1	87	67.0	0	0	---	0.00	29.841 
00:10	71.1	71.1	71.1	87	67.0	0	0	---	0.00	29.841 
00:15	70.9	70.9	70.9	87	66.8	0	0	---	0.00	29.841 
00:20	70.8	70.8	70.8	88	67.1	0	0	---	0.00	29.840 
00:25	70.8	70.8	70.8	88	67.1	0	0	---	0.00	29.840 
00:30	70.6	70.6	70.6	88	66.9	0	0	---	0.00	29.840 
00:35	70.6	70.6	70.6	88	66.9	0	0	---	0.00	29.840 
00:40	70.6	70.6	70.6	88	66.9	0	0	---	0.00	29.837 
00:45	70.6	70.6	70.6	89	67.2	0	0	---	0.00	29.833 
00:50	70.6	70.6	70.6	89	67.2	0	0	---	0.00	29.832 
00:55	70.8	70.8	70.8	88	67.1	0	0	---	0.00	29.831 
01:00	71.1	71.1	71.1	88	67.4	0	0	---	0.00	29.836 
01:05	71.1	71.1	71.1	87	67.0	0	0	---	0.00	29.835 
01:10	71.3	71.3	71.3	87	67.2	0	1	292	0.00	29.836 
01:15	71.3	71.3	71.3	86	66.9	0	0	---	0.00	29.837 
01:20	71.3	71.3	71.3	86	66.9	0	0	---	0.00	29.838 
01:25	71.3	71.3	71.3	85	66.5	0	0	---	0.00	29.839 
01:30	71.1	71.1	71.1	85	66.4	0	0	---	0.00	29.837 
01:35	70.9	70.9	70.9	85	66.2	0	0	---	0.00	29.835 
01:40	70.8	70.8	70.8	86	66.4	0	0	---	0.00	29.831 
01:45	70.6	70.6	70.6	86	66.2	0	0	---	0.00	29.832 
01:50	70.4	70.4	70.4	86	66.0	0	0	---	0.00	29.830 
01:55	70.3	70.3	70.3	86	65.9	0	0	---	0.00	29.830 
02:00	70.1	70.1	70.1	87	66.0	0	0	---	0.00	29.828 
02:05	69.8	69.8	69.8	87	65.7	0	0	---	0.00	29.829 
02:10	69.6	69.6	69.6	88	65.9	0	0	---	0.00	29.829 
02:15	69.6	69.6	69.6	88	65.9	0	0	---	0.00	29.829 
02:20	69.4	69.4	69.4	88	65.7	0	0	---	0.00	29.830 
02:25	69.3	69.3	69.3	88	65.6	0	1	292	0.00	29.831 
02:30	69.3	69.3	69.3	89	65.9	0	0	---	0.00	29.831 
02:35	69.1	69.1	69.1	89	65.7	0	0	---	0.00	29.833 
02:40	68.9	68.9	68.9	89	65.5	0	1	292	0.00	29.833 
02:45	69.1	69.1	69.1	89	65.7	0	1	292	0.00	29.830 
02:50	69.3	69.3	69.3	89	65.9	0	0	---	0.00	29.829 
02:55	69.3	69.3	69.3	88	65.6	0	0	---	0.00	29.830 
03:00	69.3	69.3	69.3	88	65.6	0	0	---	0.00	29.829 
03:05	69.3	69.3	69.3	88	65.6	0	0	---	0.00	29.825 
03:10	69.1	69.1	69.1	88	65.4	0	0	---	0.00	29.824 
03:15	69.1	69.1	69.1	88	65.4	0	0	---	0.00	29.826 
03:20	68.9	68.9	68.9	89	65.5	0	0	---	0.00	29.826 
03:25	68.9	68.9	68.9	89	65.5	0	0	---	0.00	29.826 
03:30	68.8	68.8	68.8	89	65.4	0	0	---	0.00	29.825 
03:35	68.8	68.8	68.8	89	65.4	0	1	292	0.00	29.825 
03:40	68.9	68.9	68.9	90	65.8	0	0	---	0.00	29.827 
03:45	69.3	69.3	69.3	89	65.9	0	1	292	0.00	29.828 
03:50	69.4	69.4	69.4	89	66.0	0	1	292	0.00	29.829 
03:55	69.6	69.6	69.6	89	66.2	0	1	292	0.00	29.830 
04:00	69.8	69.8	69.8	89	66.4	0	2	292	0.00	29.834 
04:05	69.9	69.9	69.9	89	66.5	0	2	292	0.00	29.837 
04:10	69.9	69.9	69.9	88	66.2	0	2	292	0.00	29.838 
04:15	69.9	69.9	69.9	88	66.2	0	1	292	0.00	29.838 
04:20	69.9	69.9	69.9	88	66.2	0	1	292	0.00	29.836 
04:25	69.9	69.9	69.9	88	66.2	0	1	292	0.00	29.836 
04:30	69.9	69.9	69.9	88	66.2	0	1	292	0.00	29.836 
04:35	69.9	69.9	69.9	88	66.2	0	1	292	0.00	29.836 
04:40	69.9	69.9	69.9	88	66.2	0	1	292	0.00	29.837 
04:45	69.9	69.9	69.9	88	66.2	0	1	292	0.00	29.832 
04:50	69.9	69.9	69.9	87	65.8	0	1	292	0.00	29.832 
04:55	69.9	69.9	69.9	87	65.8	0	0	---	0.00	29.835 
05:00	69.8	69.8	69.8	88	66.1	0	0	---	0.00	29.838 
05:05	69.6	69.6	69.6	88	65.9	0	0	---	0.00	29.841 
05:10	69.4	69.4	69.4	88	65.7	0	1	292	0.00	29.843 
05:15	69.3	69.3	69.3	88	65.6	0	1	292	0.00	29.844 
05:20	69.3	69.3	69.3	89	65.9	0	1	292	0.00	29.846 
05:25	69.1	69.1	69.1	89	65.7	0	1	292	0.00	29.853 
05:30	69.1	69.1	69.1	89	65.7	0	1	292	0.00	29.852 
05:35	68.9	68.9	68.9	90	65.8	0	1	292	0.00	29.854 
05:40	68.9	68.9	68.9	90	65.8	0	0	---	0.00	29.855 
05:45	68.8	68.8	68.8	91	66.1	0	1	292	0.00	29.853 
05:50	68.8	68.8	68.8	91	66.1	0	1	292	0.00	29.852 
05:55	68.8	68.8	68.8	92	66.4	0	1	292	0.00	29.854 
06:00	68.9	68.9	68.9	92	66.5	0	1	292	0.00	29.855 
06:05	68.9	68.9	68.9	92	66.5	0	1	292	0.00	29.858 
06:10	69.1	69.1	69.1	92	66.7	0	1	292	0.00	29.858 
06:15	69.1	69.1	69.1	92	66.7	0	2	292	0.00	29.857 
06:20	69.3	69.3	69.3	92	66.9	1	2	292	0.00	29.857 
06:25	69.6	69.6	69.6	91	66.8	1	2	292	0.00	29.857 
06:30	69.8	69.8	69.8	91	67.0	0	2	292	0.00	29.858 
06:35	69.9	69.9	69.9	90	66.8	1	2	292	0.00	29.857 
06:40	70.1	70.1	70.1	89	66.7	1	3	270	0.00	29.858 
06:45	70.3	70.3	70.3	89	66.9	1	2	270	0.00	29.860 
06:50	70.4	70.4	70.4	88	66.7	1	2	270	0.00	29.862 
06:55	70.8	70.8	70.8	88	67.1	1	3	270	0.00	29.865 
07:00	70.9	70.9	70.9	87	66.8	1	2	270	0.00	29.863 
07:05	71.3	71.3	71.3	86	66.9	1	3	225	0.00	29.862 
07:10	71.8	71.8	71.8	85	67.0	1	3	248	0.00	29.861 
07:15	72.0	72.0	72.0	84	66.9	1	2	248	0.00	29.865 
07:20	72.3	72.3	72.3	83	66.8	1	3	248	0.00	29.864 
07:25	72.3	72.3	72.3	82	66.5	1	2	292	0.00	29.867 
07:30	72.8	72.8	72.8	83	67.3	1	2	292	0.00	29.866 
07:35	73.2	73.2	73.2	82	67.4	1	3	292	0.00	29.866 
07:40	73.5	73.5	73.5	81	67.3	1	3	270	0.00	29.869 
07:45	73.7	73.7	73.7	81	67.5	1	2	270	0.00	29.871 
07:50	73.9	73.9	73.9	80	67.3	1	3	270	0.00	29.871 
07:55	73.9	73.9	73.9	79	67.0	1	2	270	0.00	29.873 
08:00	74.0	74.0	74.0	79	67.1	1	2	270	0.00	29.873 
08:05	74.0	74.0	74.0	78	66.7	1	3	270	0.00	29.875 
08:10	74.4	74.4	74.4	78	67.1	1	3	292	0.00	29.874 
08:15	74.6	74.6	74.6	77	66.9	1	3	292	0.00	29.875 
08:20	74.9	74.9	74.9	78	67.6	1	2	292	0.00	29.874 
08:25	75.3	75.3	76.4	76	67.2	1	3	292	0.00	29.876 
08:30	75.3	75.3	76.4	76	67.2	1	2	315	0.00	29.874 
08:35	75.6	75.6	76.8	76	67.5	1	2	315	0.00	29.875 
08:40	76.1	76.1	77.4	76	68.0	1	3	292	0.00	29.872 
08:45	76.3	76.3	77.8	74	67.4	1	3	292	0.00	29.872 
08:50	76.7	76.7	78.3	74	67.8	1	3	292	0.00	29.871 
08:55	77.0	77.0	78.7	73	67.7	1	4	270	0.00	29.871 
09:00	77.6	77.6	79.5	73	68.2	1	3	270	0.00	29.872 
09:05	78.1	78.1	80.2	72	68.3	1	3	270	0.00	29.872 
09:10	78.5	78.5	80.7	69	67.5	1	3	292	0.00	29.873 
09:15	78.8	78.8	80.9	67	66.9	1	2	315	0.00	29.870 
09:20	78.8	78.8	81.1	69	67.7	1	3	315	0.00	29.872 
09:25	79.0	79.0	81.1	66	66.6	1	3	315	0.00	29.871 
09:30	79.0	79.0	81.2	67	67.1	1	3	315	0.00	29.870 
09:35	79.0	79.0	81.0	65	66.2	1	3	315	0.00	29.870 
09:40	79.2	79.2	81.1	63	65.5	1	3	292	0.00	29.869 
09:45	79.2	79.2	81.4	66	66.8	1	2	270	0.00	29.869 
09:50	79.9	79.9	82.1	64	66.6	1	2	270	0.00	29.867 
09:55	80.5	80.5	82.7	62	66.3	1	2	270	0.00	29.860 
10:00	80.9	80.9	83.1	61	66.2	1	3	292	0.00	29.862 
10:05	81.2	81.2	83.3	60	66.0	2	4	270	0.00	29.865 
10:10	81.6	81.6	83.4	57	64.9	1	2	270	0.00	29.861 
10:15	82.0	82.0	83.7	56	64.7	0	2	270	0.00	29.862 
10:20	82.2	82.2	84.0	56	64.9	1	4	270	0.00	29.863 
10:25	82.2	82.2	84.0	56	64.9	2	4	248	0.00	29.862 
10:30	82.2	82.2	83.8	55	64.4	1	2	292	0.00	29.865 
10:35	83.2	83.2	85.3	56	65.8	1	3	292	0.00	29.861 
10:40	83.6	83.6	85.2	53	64.6	1	4	292	0.00	29.861 
10:45	83.8	83.8	85.1	51	63.7	2	4	270	0.00	29.860 
10:50	84.0	84.0	85.1	50	63.3	2	3	270	0.00	29.861 
10:55	84.0	84.0	85.3	51	63.9	2	5	315	0.00	29.862 
11:00	83.6	83.6	85.2	53	64.6	1	3	315	0.00	29.861 
11:05	84.0	84.0	85.6	52	64.4	2	4	270	0.00	29.864 
11:10	84.3	84.3	85.7	51	64.2	2	4	270	0.00	29.859 
11:15	84.7	84.7	86.3	51	64.5	1	4	270	0.00	29.855 
11:20	84.7	84.7	86.3	51	64.5	2	4	292	0.00	29.856 
11:25	84.3	84.3	85.5	50	63.6	1	3	292	0.00	29.855 
11:30	84.3	84.3	86.0	52	64.7	2	4	270	0.00	29.857 
11:35	84.1	84.1	85.9	53	65.1	1	4	338	0.00	29.856 
11:40	84.1	84.1	85.7	52	64.5	1	4	270	0.00	29.855 
11:45	83.6	83.6	85.5	54	65.2	1	3	270	0.00	29.855 
11:50	84.3	84.3	86.5	54	65.8	2	6	270	0.00	29.853 
11:55	84.3	84.3	86.0	52	64.7	2	4	292	0.00	29.852 
12:00	83.6	83.6	85.2	53	64.6	2	4	315	0.00	29.855 
12:05	83.2	83.2	84.7	53	64.3	2	4	315	0.00	29.854 
12:10	84.1	84.1	85.0	49	62.8	1	4	315	0.00	29.853 
12:15	84.9	84.9	86.1	49	63.6	2	6	315	0.00	29.852 
12:20	85.7	85.7	86.7	47	63.1	2	4	292	0.00	29.854 
12:25	86.3	86.3	87.0	45	62.4	1	3	315	0.00	29.853 
12:30	87.0	87.0	87.6	44	62.4	2	5	248	0.00	29.853 
12:35	87.0	87.0	86.6	40	59.7	1	4	248	0.00	29.851 
12:40	87.2	87.2	86.2	37	57.7	2	4	270	0.00	29.849 
12:45	87.6	87.6	86.7	37	58.1	3	6	270	0.00	29.852 
12:50	87.6	87.6	87.1	39	59.5	1	6	315	0.00	29.850 
12:55	87.6	87.6	85.7	32	54.1	3	8	315	0.00	29.851 
13:00	87.6	87.6	86.0	34	55.7	2	4	270	0.00	29.851 
13:05	88.0	88.0	85.7	30	52.6	3	10	270	0.00	29.852 
13:10	87.8	87.8	85.4	29	51.5	3	6	292	0.00	29.852 
13:15	88.0	88.0	85.6	29	51.7	2	3	315	0.00	29.850 
13:20	88.2	88.2	86.1	31	53.7	2	4	315	0.00	29.844 
13:25	88.4	88.4	87.2	35	57.2	2	7	292	0.00	29.843 
13:30	88.6	88.6	87.0	33	55.8	3	5	315	0.00	29.842 
13:35	88.6	88.6	86.7	32	54.9	2	5	315	0.00	29.842 
13:40	88.2	88.2	86.5	33	55.4	3	6	292	0.00	29.840 
13:45	88.4	88.4	85.7	27	50.1	2	6	315	0.00	29.844 
13:50	88.6	88.6	86.7	32	54.9	1	2	338	0.00	29.841 
13:55	88.6	88.6	86.7	32	54.9	1	3	315	0.00	29.840 
14:00	88.0	88.0	87.1	37	58.4	0	2	315	0.00	29.839 
14:05	88.6	88.6	86.2	29	52.2	2	5	315	0.00	29.842 
14:10	88.8	88.8	86.6	30	53.3	2	5	270	0.00	29.839 
14:15	87.6	87.6	86.2	35	56.5	2	4	315	0.00	29.840 
14:20	87.4	87.4	86.2	36	57.1	2	5	292	0.00	29.840 
14:25	87.4	87.4	86.2	36	57.1	1	5	270	0.00	29.840 
14:30	87.0	87.0	85.2	33	54.4	1	4	315	0.00	29.841 
14:35	86.5	86.5	84.7	33	53.9	1	4	292	0.00	29.840 
14:40	87.4	87.4	85.8	34	55.5	1	2	315	0.00	29.839 
14:45	88.2	88.2	86.1	31	53.7	1	3	338	0.00	29.837 
14:50	89.0	89.0	86.8	30	53.5	2	7	270	0.00	29.837 
14:55	88.4	88.4	85.7	27	50.1	1	4	315	0.00	29.837 
15:00	88.0	88.0	85.7	30	52.6	1	3	292	0.00	29.835 
15:05	88.6	88.6	86.2	29	52.2	2	4	292	0.00	29.833 
15:10	87.6	87.6	85.5	31	53.2	2	4	315	0.00	29.836 
15:15	88.0	88.0	86.1	32	54.4	1	3	0	0.00	29.835 
15:20	88.0	88.0	85.7	30	52.6	2	5	292	0.00	29.831 
15:25	87.6	87.6	85.5	31	53.2	1	3	292	0.00	29.828 
15:30	88.4	88.4	86.1	30	53.0	1	5	270	0.00	29.829 
15:35	88.6	88.6	86.2	29	52.2	2	9	315	0.00	29.829 
15:40	88.0	88.0	85.9	31	53.5	2	4	315	0.00	29.833 
15:45	88.4	88.4	86.3	31	53.9	1	2	315	0.00	29.829 
15:50	88.4	88.4	86.3	31	53.9	1	5	338	0.00	29.831 
15:55	87.4	87.4	85.6	33	54.7	2	6	315	0.00	29.831 
16:00	87.8	87.8	86.1	33	55.1	1	3	338	0.00	29.828 
16:05	88.0	88.0	85.9	31	53.5	1	3	315	0.00	29.828 
16:10	87.8	87.8	85.7	31	53.4	1	3	338	0.00	29.824 
16:15	87.6	87.6	85.8	33	54.9	1	4	315	0.00	29.822 
16:20	87.8	87.8	86.1	33	55.1	1	4	22	0.00	29.823 
16:25	88.4	88.4	86.3	31	53.9	2	3	292	0.00	29.823 
16:30	88.6	88.6	86.6	31	54.1	2	6	270	0.00	29.822 
16:35	88.6	88.6	86.4	30	53.2	2	4	315	0.00	29.822 
16:40	88.2	88.2	85.9	30	52.8	3	6	292	0.00	29.822 
16:45	88.0	88.0	85.6	29	51.7	2	5	315	0.00	29.821 
16:50	87.8	87.8	85.2	28	50.6	3	6	315	0.00	29.824 
16:55	87.6	87.6	85.3	30	52.3	2	6	315	0.00	29.822 
17:00	87.6	87.6	85.3	30	52.3	1	5	315	0.00	29.822 
17:05	87.4	87.4	85.0	29	51.2	3	5	270	0.00	29.824 
17:10	87.2	87.2	84.9	30	52.0	3	6	270	0.00	29.825 
17:15	87.2	87.2	84.9	30	52.0	2	4	292	0.00	29.825 
17:20	87.0	87.0	84.7	30	51.8	2	5	292	0.00	29.825 
17:25	86.7	86.7	84.4	30	51.5	3	7	270	0.00	29.826 
17:30	86.7	86.7	84.4	30	51.5	2	4	315	0.00	29.826 
17:35	86.5	86.5	84.1	29	50.4	3	5	315	0.00	29.830 
17:40	86.3	86.3	83.9	29	50.3	2	5	315	0.00	29.837 
17:45	86.1	86.1	83.5	27	48.2	3	6	315	0.00	29.839 
17:50	85.9	85.9	83.4	28	49.0	2	7	315	0.00	29.841 
17:55	85.7	85.7	83.4	29	49.7	2	5	315	0.00	29.840 
18:00	85.7	85.7	83.2	28	48.8	2	6	315	0.00	29.840 
18:05	85.5	85.5	83.2	29	49.6	3	5	270	0.00	29.840 
18:10	85.3	85.3	83.0	29	49.4	2	6	315	0.00	29.840 
18:15	85.3	85.3	83.2	31	51.2	2	4	315	0.00	29.842 
18:20	85.1	85.1	82.6	27	47.3	2	5	315	0.00	29.843 
18:25	85.1	85.1	82.8	29	49.2	1	4	292	0.00	29.843 
18:30	84.9	84.9	82.8	30	50.0	1	4	315	0.00	29.845 
18:35	84.7	84.7	82.5	29	48.9	1	4	270	0.00	29.848 
18:40	84.5	84.5	82.4	30	49.6	1	3	292	0.00	29.852 
18:45	84.3	84.3	82.5	32	51.2	1	4	292	0.00	29.854 
18:50	84.0	84.0	82.1	31	50.1	1	4	270	0.00	29.856 
18:55	83.8	83.8	81.9	31	49.9	1	2	292	0.00	29.857 
19:00	83.6	83.6	82.0	33	51.4	1	3	315	0.00	29.857 
19:05	83.2	83.2	81.8	34	51.9	0	2	315	0.00	29.858 
19:10	82.8	82.8	81.4	34	51.5	1	4	315	0.00	29.859 
19:15	82.6	82.6	81.3	34	51.4	1	3	315	0.00	29.861 
19:20	82.6	82.6	81.3	34	51.4	1	3	315	0.00	29.862 
19:25	82.4	82.4	81.1	34	51.2	1	3	338	0.00	29.862 
19:30	82.2	82.2	81.1	35	51.8	1	3	292	0.00	29.862 
19:35	82.0	82.0	80.9	35	51.6	0	1	270	0.00	29.862 
19:40	81.6	81.6	80.6	35	51.3	0	2	292	0.00	29.866 
19:45	81.4	81.4	80.5	35	51.1	1	3	315	0.00	29.868 
19:50	81.1	81.1	80.3	35	50.8	0	2	315	0.00	29.870 
19:55	81.1	81.1	80.3	35	50.8	1	2	315	0.00	29.871 
20:00	80.5	80.5	79.9	36	51.1	0	1	315	0.00	29.872 
20:05	80.3	80.3	79.8	36	50.9	0	3	292	0.00	29.869 
20:10	79.8	79.8	79.6	37	51.2	0	2	292	0.00	29.871 
20:15	79.6	79.6	79.4	37	51.0	1	3	292	0.00	29.871 
20:20	79.4	79.4	79.3	37	50.8	0	2	292	0.00	29.875 
20:25	79.0	79.0	79.2	38	51.2	0	2	292	0.00	29.875 
20:30	78.6	78.6	78.9	37	50.1	0	2	292	0.00	29.878 
20:35	78.5	78.5	78.9	38	50.8	0	1	292	0.00	29.882 
20:40	78.1	78.1	78.7	38	50.4	0	1	292	0.00	29.884 
20:45	77.7	77.7	78.6	40	51.4	0	0	---	0.00	29.886 
20:50	77.2	77.2	78.4	41	51.7	0	0	---	0.00	29.888 
20:55	76.7	76.7	78.2	42	51.9	0	0	---	0.00	29.889 
21:00	76.3	76.3	78.0	43	52.1	0	0	---	0.00	29.890 
21:05	76.0	76.0	77.9	43	51.9	0	0	---	0.00	29.888 
21:10	75.6	75.6	77.8	43	51.5	0	1	292	0.00	29.889 
21:15	75.4	75.4	77.7	44	52.0	0	0	---	0.00	29.889 
21:20	75.1	75.1	77.6	44	51.7	0	0	---	0.00	29.893 
21:25	74.7	74.7	74.7	45	51.9	0	0	---	0.00	29.893 
21:30	74.0	74.0	74.0	46	51.9	0	0	---	0.00	29.895 
21:35	73.5	73.5	73.5	46	51.4	0	0	---	0.00	29.898 
21:40	73.2	73.2	73.2	47	51.7	0	0	---	0.00	29.903 
21:45	73.2	73.2	73.2	46	51.2	0	0	---	0.00	29.904 
21:50	73.3	73.3	73.3	46	51.3	0	0	---	0.00	29.905 
21:55	73.2	73.2	73.2	46	51.2	0	0	---	0.00	29.905 
22:00	73.0	73.0	73.0	46	51.0	0	0	---	0.00	29.905 
22:05	72.8	72.8	72.8	46	50.8	0	0	---	0.00	29.904 
22:10	72.7	72.7	72.7	47	51.3	0	0	---	0.00	29.904 
22:15	72.3	72.3	72.3	48	51.5	0	0	---	0.00	29.904 
22:20	72.1	72.1	72.1	47	50.7	0	0	---	0.00	29.904 
22:25	72.1	72.1	72.1	46	50.2	0	0	---	0.00	29.904 
22:30	72.1	72.1	72.1	47	50.7	0	0	---	0.00	29.905 
22:35	71.8	71.8	71.8	48	51.0	0	0	---	0.00	29.905 
22:40	71.5	71.5	71.5	49	51.3	0	0	---	0.00	29.906 
22:45	71.1	71.1	71.1	50	51.5	0	0	---	0.00	29.909 
22:50	70.6	70.6	70.6	50	51.0	0	0	---	0.00	29.910 
22:55	70.3	70.3	70.3	51	51.3	0	0	---	0.00	29.912 
23:00	69.8	69.8	69.8	52	51.4	0	0	---	0.00	29.913 
23:05	69.3	69.3	69.3	53	51.4	0	0	---	0.00	29.914 
23:10	68.9	68.9	68.9	54	51.6	0	0	---	0.00	29.917 
23:15	68.4	68.4	68.4	56	52.1	0	0	---	0.00	29.919 
23:20	68.1	68.1	68.1	57	52.3	0	0	---	0.00	29.919 
23:25	67.6	67.6	67.6	57	51.8	0	0	---	0.00	29.920 
23:30	67.1	67.1	67.1	59	52.3	0	0	---	0.00	29.922 
23:35	66.8	66.8	66.8	59	52.0	0	0	---	0.00	29.922 
23:40	66.4	66.4	66.4	60	52.1	0	0	---	0.00	29.923 
23:45	66.3	66.3	66.3	61	52.4	0	0	---	0.00	29.924 
23:50	66.0	66.0	66.0	62	52.6	0	0	---	0.00	29.925 
23:55	65.8	65.8	65.8	62	52.4	0	0	---	0.00	29.925 

CoCoRaHS
IN-AL-39
A2 Web Hosting
Creative Commons License
GoDaddy
Look for:

loaded 2017-12-13 19:33:49 • last modified 2010-11-18 10:43:29
Privacy PolicyDisclaimer
• wx.awcolley.com is powered by PmWiki v.2002016 •
• all content (unless otherwise noted) © 2017 A W Colley